TLPC/SLU METAR and TAF weather

Enter ICAO airport designator
Station Type Date Time Source
TLPC METAR 2019/04/25 00:00 UTC NOAA

TLPC 250000Z 09005KT 9999 SCT024 27/24 Q1014 NOSIG


Station Type Date Time Source
TLPC Decoded METAR 2019/04/25 00:00 UTC NOAA

Vigie, Saint Lucia (TLPC) 14-01N 061-00W 2M
Apr 24, 2019 - 08:00 PM EDT / 2019.04.25 0000 UTC
Wind: from the E (090 degrees) at 6 MPH (5 KT):0
Visibility: greater than 7 mile(s):0
Sky conditions: partly cloudy
Temperature: 80 F (27 C)
Dew Point: 75 F (24 C)
Relative Humidity: 83%
Pressure (altimeter): 29.94 in. Hg (1014 hPa)
ob: TLPC 250000Z 09005KT 9999 SCT024 27/24 Q1014 NOSIG
cycle: 0

Station Type Date Time Source
TLPC TAF 2019/04/25 06:15 UTC NOAA

TAF TAF TLPC 250500Z 2506/2606 10008KT 9999 SCT024 BKN040
TEMPO 2506/2606 SHRA BKN018

Example: see airport list